sensor_id;sensor_type;location;lat;lon;timestamp;P1;durP1;ratioP1;P2;durP2;ratioP2
46713;SDS011;32445;51.376;10.874;2023-09-07T00:04:49;8.80;;;4.23;;
46713;SDS011;32445;51.376;10.874;2023-09-07T00:09:50;5.83;;;4.17;;
46713;SDS011;32445;51.376;10.874;2023-09-07T00:14:50;8.10;;;4.30;;
46713;SDS011;32445;51.376;10.874;2023-09-07T00:19:50;9.47;;;3.80;;
46713;SDS011;32445;51.376;10.874;2023-09-07T00:24:52;7.47;;;4.35;;
46713;SDS011;32445;51.376;10.874;2023-09-07T00:29:52;6.57;;;4.30;;
46713;SDS011;32445;51.376;10.874;2023-09-07T00:34:53;6.13;;;4.20;;
46713;SDS011;32445;51.376;10.874;2023-09-07T00:39:56;10.23;;;4.23;;
46713;SDS011;32445;51.376;10.874;2023-09-07T00:44:56;8.60;;;4.47;;
46713;SDS011;32445;51.376;10.874;2023-09-07T00:49:56;8.00;;;4.53;;
46713;SDS011;32445;51.376;10.874;2023-09-07T00:55:00;5.55;;;3.80;;
46713;SDS011;32445;51.376;10.874;2023-09-07T01:00:02;7.07;;;4.30;;
46713;SDS011;32445;51.376;10.874;2023-09-07T01:05:06;7.10;;;3.90;;
46713;SDS011;32445;51.376;10.874;2023-09-07T01:10:07;6.35;;;3.58;;
46713;SDS011;32445;51.376;10.874;2023-09-07T01:15:08;6.40;;;3.97;;
46713;SDS011;32445;51.376;10.874;2023-09-07T01:20:10;6.43;;;3.85;;
46713;SDS011;32445;51.376;10.874;2023-09-07T01:25:13;6.10;;;4.28;;
46713;SDS011;32445;51.376;10.874;2023-09-07T01:30:19;7.72;;;4.00;;
46713;SDS011;32445;51.376;10.874;2023-09-07T01:35:20;13.35;;;4.60;;
46713;SDS011;32445;51.376;10.874;2023-09-07T01:40:22;4.93;;;3.78;;
46713;SDS011;32445;51.376;10.874;2023-09-07T01:45:22;12.47;;;4.20;;
46713;SDS011;32445;51.376;10.874;2023-09-07T01:50:23;9.43;;;3.85;;
46713;SDS011;32445;51.376;10.874;2023-09-07T01:55:26;7.38;;;4.13;;
46713;SDS011;32445;51.376;10.874;2023-09-07T02:00:27;7.38;;;3.97;;
46713;SDS011;32445;51.376;10.874;2023-09-07T02:05:27;5.67;;;4.07;;
46713;SDS011;32445;51.376;10.874;2023-09-07T02:10:28;5.10;;;3.90;;
46713;SDS011;32445;51.376;10.874;2023-09-07T02:15:28;7.83;;;4.00;;
46713;SDS011;32445;51.376;10.874;2023-09-07T02:20:28;5.83;;;4.23;;
46713;SDS011;32445;51.376;10.874;2023-09-07T02:25:29;6.90;;;3.90;;
46713;SDS011;32445;51.376;10.874;2023-09-07T02:30:31;8.45;;;3.97;;
46713;SDS011;32445;51.376;10.874;2023-09-07T02:35:31;6.18;;;4.30;;
46713;SDS011;32445;51.376;10.874;2023-09-07T02:40:32;6.87;;;3.87;;
46713;SDS011;32445;51.376;10.874;2023-09-07T02:45:32;7.97;;;4.30;;
46713;SDS011;32445;51.376;10.874;2023-09-07T02:50:33;6.07;;;3.87;;
46713;SDS011;32445;51.376;10.874;2023-09-07T02:55:34;5.03;;;3.33;;
46713;SDS011;32445;51.376;10.874;2023-09-07T03:00:34;6.13;;;4.13;;
46713;SDS011;32445;51.376;10.874;2023-09-07T03:05:35;9.37;;;4.67;;
46713;SDS011;32445;51.376;10.874;2023-09-07T03:10:36;8.63;;;4.57;;
46713;SDS011;32445;51.376;10.874;2023-09-07T03:15:37;4.93;;;3.47;;
46713;SDS011;32445;51.376;10.874;2023-09-07T03:20:38;5.23;;;3.80;;
46713;SDS011;32445;51.376;10.874;2023-09-07T03:25:38;6.97;;;4.23;;
46713;SDS011;32445;51.376;10.874;2023-09-07T03:30:39;5.60;;;4.07;;
46713;SDS011;32445;51.376;10.874;2023-09-07T03:35:40;6.30;;;3.83;;
46713;SDS011;32445;51.376;10.874;2023-09-07T03:40:40;9.53;;;4.33;;
46713;SDS011;32445;51.376;10.874;2023-09-07T03:45:41;7.40;;;4.00;;
46713;SDS011;32445;51.376;10.874;2023-09-07T03:50:41;7.27;;;4.27;;
46713;SDS011;32445;51.376;10.874;2023-09-07T03:55:42;7.63;;;4.00;;
46713;SDS011;32445;51.376;10.874;2023-09-07T04:00:44;6.55;;;4.18;;
46713;SDS011;32445;51.376;10.874;2023-09-07T04:05:45;5.72;;;4.68;;
46713;SDS011;32445;51.376;10.874;2023-09-07T04:10:47;7.97;;;4.77;;
46713;SDS011;32445;51.376;10.874;2023-09-07T04:15:47;7.55;;;4.63;;
46713;SDS011;32445;51.376;10.874;2023-09-07T04:20:48;5.47;;;4.07;;
46713;SDS011;32445;51.376;10.874;2023-09-07T04:25:48;5.33;;;4.13;;
46713;SDS011;32445;51.376;10.874;2023-09-07T04:30:48;9.10;;;4.37;;
46713;SDS011;32445;51.376;10.874;2023-09-07T04:35:49;6.13;;;3.80;;
46713;SDS011;32445;51.376;10.874;2023-09-07T04:40:49;5.77;;;4.10;;
46713;SDS011;32445;51.376;10.874;2023-09-07T04:45:49;6.90;;;4.37;;
46713;SDS011;32445;51.376;10.874;2023-09-07T04:50:57;5.77;;;4.17;;
46713;SDS011;32445;51.376;10.874;2023-09-07T04:56:01;8.25;;;3.70;;
46713;SDS011;32445;51.376;10.874;2023-09-07T05:01:03;9.23;;;3.65;;
46713;SDS011;32445;51.376;10.874;2023-09-07T05:06:03;6.07;;;4.05;;
46713;SDS011;32445;51.376;10.874;2023-09-07T05:11:04;8.55;;;4.63;;
46713;SDS011;32445;51.376;10.874;2023-09-07T05:16:05;6.95;;;4.03;;
46713;SDS011;32445;51.376;10.874;2023-09-07T05:21:12;5.93;;;3.80;;
46713;SDS011;32445;51.376;10.874;2023-09-07T05:26:20;5.13;;;3.72;;
46713;SDS011;32445;51.376;10.874;2023-09-07T05:31:26;10.38;;;4.75;;
46713;SDS011;32445;51.376;10.874;2023-09-07T05:36:26;13.05;;;7.63;;
46713;SDS011;32445;51.376;10.874;2023-09-07T05:41:27;18.20;;;9.07;;
46713;SDS011;32445;51.376;10.874;2023-09-07T05:46:27;16.57;;;8.37;;
46713;SDS011;32445;51.376;10.874;2023-09-07T05:51:28;10.93;;;7.50;;
46713;SDS011;32445;51.376;10.874;2023-09-07T05:56:28;11.53;;;7.40;;
46713;SDS011;32445;51.376;10.874;2023-09-07T06:01:30;10.48;;;6.63;;
46713;SDS011;32445;51.376;10.874;2023-09-07T06:06:30;10.77;;;5.53;;
46713;SDS011;32445;51.376;10.874;2023-09-07T06:11:31;11.67;;;6.87;;
46713;SDS011;32445;51.376;10.874;2023-09-07T06:16:32;13.70;;;6.25;;
46713;SDS011;32445;51.376;10.874;2023-09-07T06:21:32;11.60;;;6.00;;
46713;SDS011;32445;51.376;10.874;2023-09-07T06:26:32;9.00;;;5.13;;
46713;SDS011;32445;51.376;10.874;2023-09-07T06:31:33;7.63;;;5.43;;
46713;SDS011;32445;51.376;10.874;2023-09-07T06:36:33;10.13;;;5.97;;
46713;SDS011;32445;51.376;10.874;2023-09-07T06:41:33;10.33;;;6.50;;
46713;SDS011;32445;51.376;10.874;2023-09-07T06:46:34;10.40;;;6.40;;
46713;SDS011;32445;51.376;10.874;2023-09-07T06:51:34;10.73;;;6.47;;
46713;SDS011;32445;51.376;10.874;2023-09-07T06:56:34;11.60;;;6.07;;
46713;SDS011;32445;51.376;10.874;2023-09-07T07:01:35;7.53;;;5.57;;
46713;SDS011;32445;51.376;10.874;2023-09-07T07:06:35;9.00;;;6.50;;
46713;SDS011;32445;51.376;10.874;2023-09-07T07:11:36;10.33;;;6.60;;
46713;SDS011;32445;51.376;10.874;2023-09-07T07:16:36;9.77;;;7.50;;
46713;SDS011;32445;51.376;10.874;2023-09-07T07:21:43;12.70;;;7.88;;
46713;SDS011;32445;51.376;10.874;2023-09-07T07:26:44;12.05;;;7.80;;
46713;SDS011;32445;51.376;10.874;2023-09-07T07:31:47;11.30;;;7.67;;
46713;SDS011;32445;51.376;10.874;2023-09-07T07:36:48;16.98;;;8.23;;
46713;SDS011;32445;51.376;10.874;2023-09-07T07:41:48;12.97;;;8.53;;
46713;SDS011;32445;51.376;10.874;2023-09-07T07:46:49;14.38;;;8.93;;
46713;SDS011;32445;51.376;10.874;2023-09-07T07:51:49;11.97;;;8.50;;
46713;SDS011;32445;51.376;10.874;2023-09-07T07:56:52;12.73;;;8.90;;
46713;SDS011;32445;51.376;10.874;2023-09-07T08:01:52;14.55;;;9.07;;
46713;SDS011;32445;51.376;10.874;2023-09-07T08:06:52;15.50;;;8.80;;
46713;SDS011;32445;51.376;10.874;2023-09-07T08:11:57;13.35;;;8.02;;
46713;SDS011;32445;51.376;10.874;2023-09-07T08:16:57;11.77;;;9.10;;
46713;SDS011;32445;51.376;10.874;2023-09-07T08:21:58;11.10;;;8.40;;
46713;SDS011;32445;51.376;10.874;2023-09-07T08:26:58;12.97;;;8.53;;
46713;SDS011;32445;51.376;10.874;2023-09-07T08:32:00;12.70;;;8.27;;
46713;SDS011;32445;51.376;10.874;2023-09-07T08:37:03;15.88;;;8.25;;
46713;SDS011;32445;51.376;10.874;2023-09-07T08:42:05;11.50;;;7.03;;
46713;SDS011;32445;51.376;10.874;2023-09-07T08:47:06;12.02;;;6.97;;
46713;SDS011;32445;51.376;10.874;2023-09-07T08:52:07;11.65;;;6.78;;
46713;SDS011;32445;51.376;10.874;2023-09-07T08:57:08;7.85;;;6.57;;
46713;SDS011;32445;51.376;10.874;2023-09-07T09:02:10;10.38;;;6.15;;
46713;SDS011;32445;51.376;10.874;2023-09-07T09:07:11;8.60;;;5.77;;
46713;SDS011;32445;51.376;10.874;2023-09-07T09:12:11;8.10;;;5.77;;
46713;SDS011;32445;51.376;10.874;2023-09-07T09:17:15;10.75;;;6.45;;
46713;SDS011;32445;51.376;10.874;2023-09-07T09:22:16;7.95;;;5.65;;
46713;SDS011;32445;51.376;10.874;2023-09-07T09:27:17;14.52;;;6.53;;
46713;SDS011;32445;51.376;10.874;2023-09-07T09:32:17;9.80;;;5.17;;
46713;SDS011;32445;51.376;10.874;2023-09-07T09:37:19;8.40;;;5.10;;
46713;SDS011;32445;51.376;10.874;2023-09-07T09:42:20;7.50;;;5.40;;
46713;SDS011;32445;51.376;10.874;2023-09-07T09:47:21;10.38;;;5.78;;
46713;SDS011;32445;51.376;10.874;2023-09-07T09:52:22;8.38;;;5.85;;
46713;SDS011;32445;51.376;10.874;2023-09-07T09:57:24;6.88;;;5.20;;
46713;SDS011;32445;51.376;10.874;2023-09-07T10:02:25;7.93;;;5.67;;
46713;SDS011;32445;51.376;10.874;2023-09-07T10:07:40;20.13;;;6.35;;
46713;SDS011;32445;51.376;10.874;2023-09-07T10:12:42;7.85;;;5.68;;
46713;SDS011;32445;51.376;10.874;2023-09-07T10:17:44;11.73;;;4.63;;
46713;SDS011;32445;51.376;10.874;2023-09-07T10:22:46;7.57;;;4.80;;
46713;SDS011;32445;51.376;10.874;2023-09-07T10:27:46;7.13;;;4.40;;
46713;SDS011;32445;51.376;10.874;2023-09-07T10:32:47;7.13;;;4.05;;
46713;SDS011;32445;51.376;10.874;2023-09-07T10:37:47;5.50;;;4.10;;
46713;SDS011;32445;51.376;10.874;2023-09-07T10:42:48;7.83;;;3.93;;
46713;SDS011;32445;51.376;10.874;2023-09-07T10:47:48;6.63;;;3.87;;
46713;SDS011;32445;51.376;10.874;2023-09-07T10:52:48;8.33;;;4.27;;
46713;SDS011;32445;51.376;10.874;2023-09-07T10:57:49;6.10;;;4.20;;
46713;SDS011;32445;51.376;10.874;2023-09-07T11:02:49;7.03;;;4.37;;
46713;SDS011;32445;51.376;10.874;2023-09-07T11:07:50;5.67;;;4.20;;
46713;SDS011;32445;51.376;10.874;2023-09-07T11:12:50;5.17;;;4.00;;
46713;SDS011;32445;51.376;10.874;2023-09-07T11:17:51;6.55;;;3.95;;
46713;SDS011;32445;51.376;10.874;2023-09-07T11:22:52;6.63;;;3.95;;
46713;SDS011;32445;51.376;10.874;2023-09-07T11:27:53;6.00;;;3.50;;
46713;SDS011;32445;51.376;10.874;2023-09-07T11:33:13;7.82;;;4.05;;
46713;SDS011;32445;51.376;10.874;2023-09-07T11:38:16;5.22;;;3.55;;
46713;SDS011;32445;51.376;10.874;2023-09-07T11:43:17;6.15;;;4.32;;
46713;SDS011;32445;51.376;10.874;2023-09-07T11:48:20;8.20;;;4.80;;
46713;SDS011;32445;51.376;10.874;2023-09-07T11:53:21;4.70;;;3.50;;
46713;SDS011;32445;51.376;10.874;2023-09-07T11:58:21;7.87;;;4.00;;
46713;SDS011;32445;51.376;10.874;2023-09-07T12:03:21;5.57;;;4.23;;
46713;SDS011;32445;51.376;10.874;2023-09-07T12:08:22;5.63;;;4.47;;
46713;SDS011;32445;51.376;10.874;2023-09-07T12:13:23;7.60;;;4.35;;
46713;SDS011;32445;51.376;10.874;2023-09-07T12:18:23;10.00;;;4.60;;
46713;SDS011;32445;51.376;10.874;2023-09-07T12:23:26;6.65;;;3.88;;
46713;SDS011;32445;51.376;10.874;2023-09-07T12:28:26;5.45;;;3.83;;
46713;SDS011;32445;51.376;10.874;2023-09-07T12:33:27;5.82;;;4.13;;
46713;SDS011;32445;51.376;10.874;2023-09-07T12:38:30;6.07;;;3.83;;
46713;SDS011;32445;51.376;10.874;2023-09-07T12:43:30;6.10;;;4.20;;
46713;SDS011;32445;51.376;10.874;2023-09-07T12:48:31;7.23;;;4.07;;
46713;SDS011;32445;51.376;10.874;2023-09-07T12:53:31;8.27;;;3.93;;
46713;SDS011;32445;51.376;10.874;2023-09-07T12:58:34;7.90;;;4.07;;
46713;SDS011;32445;51.376;10.874;2023-09-07T13:03:34;6.97;;;3.92;;
46713;SDS011;32445;51.376;10.874;2023-09-07T13:08:37;7.93;;;4.30;;
46713;SDS011;32445;51.376;10.874;2023-09-07T13:13:37;7.75;;;3.60;;
46713;SDS011;32445;51.376;10.874;2023-09-07T13:18:38;7.63;;;4.10;;
46713;SDS011;32445;51.376;10.874;2023-09-07T13:23:39;7.20;;;3.97;;
46713;SDS011;32445;51.376;10.874;2023-09-07T13:28:41;8.23;;;4.05;;
46713;SDS011;32445;51.376;10.874;2023-09-07T13:33:41;6.43;;;4.13;;
46713;SDS011;32445;51.376;10.874;2023-09-07T13:38:41;8.80;;;3.80;;
46713;SDS011;32445;51.376;10.874;2023-09-07T13:43:42;6.83;;;3.77;;
46713;SDS011;32445;51.376;10.874;2023-09-07T13:48:42;7.80;;;4.07;;
46713;SDS011;32445;51.376;10.874;2023-09-07T13:53:43;7.87;;;4.27;;
46713;SDS011;32445;51.376;10.874;2023-09-07T13:58:43;6.50;;;3.90;;
46713;SDS011;32445;51.376;10.874;2023-09-07T14:03:43;7.43;;;3.90;;
46713;SDS011;32445;51.376;10.874;2023-09-07T14:08:44;7.53;;;3.50;;
46713;SDS011;32445;51.376;10.874;2023-09-07T14:13:47;4.70;;;2.92;;
46713;SDS011;32445;51.376;10.874;2023-09-07T14:18:47;6.63;;;3.50;;
46713;SDS011;32445;51.376;10.874;2023-09-07T14:23:48;4.50;;;3.27;;
46713;SDS011;32445;51.376;10.874;2023-09-07T14:28:48;6.37;;;3.87;;
46713;SDS011;32445;51.376;10.874;2023-09-07T14:33:50;5.63;;;3.55;;
46713;SDS011;32445;51.376;10.874;2023-09-07T14:38:50;4.73;;;3.30;;
46713;SDS011;32445;51.376;10.874;2023-09-07T14:43:51;10.27;;;3.63;;
46713;SDS011;32445;51.376;10.874;2023-09-07T14:48:51;6.33;;;3.23;;
46713;SDS011;32445;51.376;10.874;2023-09-07T14:53:52;3.90;;;3.33;;
46713;SDS011;32445;51.376;10.874;2023-09-07T14:58:52;7.50;;;4.10;;
46713;SDS011;32445;51.376;10.874;2023-09-07T15:03:55;5.30;;;3.40;;
46713;SDS011;32445;51.376;10.874;2023-09-07T15:08:56;4.22;;;3.25;;
46713;SDS011;32445;51.376;10.874;2023-09-07T15:13:57;9.25;;;3.42;;
46713;SDS011;32445;51.376;10.874;2023-09-07T15:18:57;5.77;;;3.57;;
46713;SDS011;32445;51.376;10.874;2023-09-07T15:23:58;6.82;;;3.00;;
46713;SDS011;32445;51.376;10.874;2023-09-07T15:28:58;4.32;;;3.42;;
46713;SDS011;32445;51.376;10.874;2023-09-07T15:33:59;6.33;;;3.30;;
46713;SDS011;32445;51.376;10.874;2023-09-07T15:38:59;4.43;;;3.20;;
46713;SDS011;32445;51.376;10.874;2023-09-07T15:43:59;7.17;;;3.10;;
46713;SDS011;32445;51.376;10.874;2023-09-07T15:49:00;7.27;;;3.43;;
46713;SDS011;32445;51.376;10.874;2023-09-07T15:54:00;4.50;;;3.37;;
46713;SDS011;32445;51.376;10.874;2023-09-07T15:59:00;4.63;;;3.10;;
46713;SDS011;32445;51.376;10.874;2023-09-07T16:04:01;5.23;;;3.10;;
46713;SDS011;32445;51.376;10.874;2023-09-07T16:09:01;5.70;;;3.53;;
46713;SDS011;32445;51.376;10.874;2023-09-07T16:14:01;7.80;;;3.77;;
46713;SDS011;32445;51.376;10.874;2023-09-07T16:19:02;5.67;;;3.57;;
46713;SDS011;32445;51.376;10.874;2023-09-07T16:24:02;5.45;;;4.10;;
46713;SDS011;32445;51.376;10.874;2023-09-07T16:29:03;8.25;;;4.53;;
46713;SDS011;32445;51.376;10.874;2023-09-07T16:34:03;6.23;;;3.97;;
46713;SDS011;32445;51.376;10.874;2023-09-07T16:39:04;6.37;;;3.53;;
46713;SDS011;32445;51.376;10.874;2023-09-07T16:44:04;9.70;;;3.50;;
46713;SDS011;32445;51.376;10.874;2023-09-07T16:49:04;8.90;;;3.40;;
46713;SDS011;32445;51.376;10.874;2023-09-07T16:54:05;4.93;;;3.33;;
46713;SDS011;32445;51.376;10.874;2023-09-07T16:59:05;7.50;;;3.50;;
46713;SDS011;32445;51.376;10.874;2023-09-07T17:04:05;6.03;;;3.70;;
46713;SDS011;32445;51.376;10.874;2023-09-07T17:09:06;6.03;;;3.40;;
46713;SDS011;32445;51.376;10.874;2023-09-07T17:14:08;5.77;;;3.13;;
46713;SDS011;32445;51.376;10.874;2023-09-07T17:19:08;9.93;;;3.30;;
46713;SDS011;32445;51.376;10.874;2023-09-07T17:24:10;8.10;;;3.83;;
46713;SDS011;32445;51.376;10.874;2023-09-07T17:29:11;7.65;;;4.07;;
46713;SDS011;32445;51.376;10.874;2023-09-07T17:34:14;9.97;;;4.73;;
46713;SDS011;32445;51.376;10.874;2023-09-07T17:39:14;7.88;;;4.63;;
46713;SDS011;32445;51.376;10.874;2023-09-07T17:44:15;7.17;;;4.53;;
46713;SDS011;32445;51.376;10.874;2023-09-07T17:49:15;6.50;;;4.03;;
46713;SDS011;32445;51.376;10.874;2023-09-07T17:54:15;8.07;;;4.03;;
46713;SDS011;32445;51.376;10.874;2023-09-07T17:59:16;5.33;;;3.70;;
46713;SDS011;32445;51.376;10.874;2023-09-07T18:04:16;6.87;;;3.73;;
46713;SDS011;32445;51.376;10.874;2023-09-07T18:09:16;6.33;;;3.77;;
46713;SDS011;32445;51.376;10.874;2023-09-07T18:14:17;9.13;;;3.73;;
46713;SDS011;32445;51.376;10.874;2023-09-07T18:19:17;7.93;;;4.23;;
46713;SDS011;32445;51.376;10.874;2023-09-07T18:24:17;7.60;;;4.43;;
46713;SDS011;32445;51.376;10.874;2023-09-07T18:29:18;12.07;;;4.37;;
46713;SDS011;32445;51.376;10.874;2023-09-07T18:34:18;6.83;;;4.30;;
46713;SDS011;32445;51.376;10.874;2023-09-07T18:39:19;11.47;;;4.83;;
46713;SDS011;32445;51.376;10.874;2023-09-07T18:44:19;14.40;;;5.37;;
46713;SDS011;32445;51.376;10.874;2023-09-07T18:49:20;12.87;;;4.73;;
46713;SDS011;32445;51.376;10.874;2023-09-07T18:54:20;16.08;;;5.53;;
46713;SDS011;32445;51.376;10.874;2023-09-07T18:59:21;17.83;;;5.43;;
46713;SDS011;32445;51.376;10.874;2023-09-07T19:04:21;11.97;;;5.07;;
46713;SDS011;32445;51.376;10.874;2023-09-07T19:09:27;13.35;;;4.35;;
46713;SDS011;32445;51.376;10.874;2023-09-07T19:14:27;13.57;;;5.53;;
46713;SDS011;32445;51.376;10.874;2023-09-07T19:19:28;16.80;;;4.73;;
46713;SDS011;32445;51.376;10.874;2023-09-07T19:24:28;12.40;;;4.50;;
46713;SDS011;32445;51.376;10.874;2023-09-07T19:29:28;11.30;;;4.70;;
46713;SDS011;32445;51.376;10.874;2023-09-07T19:34:29;10.97;;;4.70;;
46713;SDS011;32445;51.376;10.874;2023-09-07T19:39:29;10.68;;;4.97;;
46713;SDS011;32445;51.376;10.874;2023-09-07T19:44:30;13.37;;;4.17;;
46713;SDS011;32445;51.376;10.874;2023-09-07T19:49:31;10.38;;;4.82;;
46713;SDS011;32445;51.376;10.874;2023-09-07T19:54:31;9.67;;;4.17;;
46713;SDS011;32445;51.376;10.874;2023-09-07T19:59:31;8.77;;;4.40;;
46713;SDS011;32445;51.376;10.874;2023-09-07T20:04:32;15.03;;;4.87;;
46713;SDS011;32445;51.376;10.874;2023-09-07T20:09:32;12.55;;;4.22;;
46713;SDS011;32445;51.376;10.874;2023-09-07T20:14:33;11.30;;;4.53;;
46713;SDS011;32445;51.376;10.874;2023-09-07T20:19:40;11.13;;;4.37;;
46713;SDS011;32445;51.376;10.874;2023-09-07T20:24:42;8.48;;;4.18;;
46713;SDS011;32445;51.376;10.874;2023-09-07T20:29:42;5.13;;;4.00;;
46713;SDS011;32445;51.376;10.874;2023-09-07T20:34:43;11.80;;;5.10;;
46713;SDS011;32445;51.376;10.874;2023-09-07T20:39:46;6.23;;;3.70;;
46713;SDS011;32445;51.376;10.874;2023-09-07T20:44:48;6.60;;;3.72;;
46713;SDS011;32445;51.376;10.874;2023-09-07T20:49:49;7.53;;;4.38;;
46713;SDS011;32445;51.376;10.874;2023-09-07T20:54:50;4.85;;;4.03;;
46713;SDS011;32445;51.376;10.874;2023-09-07T20:59:51;7.10;;;3.83;;
46713;SDS011;32445;51.376;10.874;2023-09-07T21:04:52;5.82;;;3.70;;
46713;SDS011;32445;51.376;10.874;2023-09-07T21:09:53;8.80;;;4.40;;
46713;SDS011;32445;51.376;10.874;2023-09-07T21:14:53;12.63;;;3.90;;
46713;SDS011;32445;51.376;10.874;2023-09-07T21:19:53;12.47;;;4.57;;
46713;SDS011;32445;51.376;10.874;2023-09-07T21:24:56;12.70;;;10.73;;
46713;SDS011;32445;51.376;10.874;2023-09-07T21:29:56;30.60;;;23.77;;
46713;SDS011;32445;51.376;10.874;2023-09-07T21:34:57;18.73;;;15.37;;
46713;SDS011;32445;51.376;10.874;2023-09-07T21:39:57;14.33;;;10.40;;
46713;SDS011;32445;51.376;10.874;2023-09-07T21:44:57;14.47;;;7.70;;
46713;SDS011;32445;51.376;10.874;2023-09-07T21:49:59;8.63;;;6.03;;
46713;SDS011;32445;51.376;10.874;2023-09-07T21:55:00;10.23;;;5.68;;
46713;SDS011;32445;51.376;10.874;2023-09-07T22:00:00;9.52;;;5.43;;
46713;SDS011;32445;51.376;10.874;2023-09-07T22:05:04;8.15;;;4.75;;
46713;SDS011;32445;51.376;10.874;2023-09-07T22:10:05;10.57;;;5.65;;
46713;SDS011;32445;51.376;10.874;2023-09-07T22:15:05;7.70;;;6.32;;
46713;SDS011;32445;51.376;10.874;2023-09-07T22:20:12;12.75;;;7.38;;
46713;SDS011;32445;51.376;10.874;2023-09-07T22:25:13;17.08;;;11.52;;
46713;SDS011;32445;51.376;10.874;2023-09-07T22:30:13;13.47;;;6.97;;
46713;SDS011;32445;51.376;10.874;2023-09-07T22:35:14;8.73;;;5.43;;
46713;SDS011;32445;51.376;10.874;2023-09-07T22:40:14;7.73;;;5.60;;
46713;SDS011;32445;51.376;10.874;2023-09-07T22:45:15;6.20;;;4.93;;
46713;SDS011;32445;51.376;10.874;2023-09-07T22:50:16;8.93;;;4.60;;
46713;SDS011;32445;51.376;10.874;2023-09-07T22:55:32;9.37;;;4.33;;
46713;SDS011;32445;51.376;10.874;2023-09-07T23:00:43;6.82;;;4.55;;
46713;SDS011;32445;51.376;10.874;2023-09-07T23:05:45;7.10;;;4.40;;
46713;SDS011;32445;51.376;10.874;2023-09-07T23:10:45;8.20;;;4.63;;
46713;SDS011;32445;51.376;10.874;2023-09-07T23:15:48;8.75;;;5.38;;
46713;SDS011;32445;51.376;10.874;2023-09-07T23:20:49;8.82;;;4.63;;
46713;SDS011;32445;51.376;10.874;2023-09-07T23:25:49;9.50;;;4.77;;
46713;SDS011;32445;51.376;10.874;2023-09-07T23:30:53;6.87;;;4.50;;
46713;SDS011;32445;51.376;10.874;2023-09-07T23:40:54;6.22;;;4.28;;
46713;SDS011;32445;51.376;10.874;2023-09-07T23:45:55;7.30;;;4.20;;
46713;SDS011;32445;51.376;10.874;2023-09-07T23:50:55;8.53;;;4.80;;
46713;SDS011;32445;51.376;10.874;2023-09-07T23:55:56;9.80;;;4.70;;
